sensor_id;sensor_type;location;lat;lon;timestamp;P1;durP1;ratioP1;P2;durP2;ratioP2
74660;SDS011;63191;39.566;2.654;2023-03-14T00:00:52;12.80;;;4.00;;
74660;SDS011;63191;39.566;2.654;2023-03-14T00:03:18;13.20;;;2.90;;
74660;SDS011;63191;39.566;2.654;2023-03-14T00:05:44;14.60;;;4.20;;
74660;SDS011;63191;39.566;2.654;2023-03-14T00:08:10;9.30;;;2.70;;
74660;SDS011;63191;39.566;2.654;2023-03-14T00:10:37;12.30;;;3.50;;
74660;SDS011;63191;39.566;2.654;2023-03-14T00:13:04;9.60;;;3.30;;
74660;SDS011;63191;39.566;2.654;2023-03-14T00:15:32;12.30;;;3.60;;
74660;SDS011;63191;39.566;2.654;2023-03-14T00:17:59;11.60;;;3.40;;
74660;SDS011;63191;39.566;2.654;2023-03-14T00:20:25;11.60;;;3.50;;
74660;SDS011;63191;39.566;2.654;2023-03-14T00:22:51;11.70;;;3.20;;
74660;SDS011;63191;39.566;2.654;2023-03-14T00:25:17;9.30;;;3.50;;
74660;SDS011;63191;39.566;2.654;2023-03-14T00:27:43;10.50;;;2.40;;
74660;SDS011;63191;39.566;2.654;2023-03-14T00:30:11;9.20;;;2.80;;
74660;SDS011;63191;39.566;2.654;2023-03-14T00:32:37;8.80;;;2.20;;
74660;SDS011;63191;39.566;2.654;2023-03-14T00:35:03;6.60;;;1.70;;
74660;SDS011;63191;39.566;2.654;2023-03-14T00:37:30;8.20;;;2.30;;
74660;SDS011;63191;39.566;2.654;2023-03-14T00:39:55;8.40;;;2.40;;
74660;SDS011;63191;39.566;2.654;2023-03-14T00:42:21;9.20;;;2.20;;
74660;SDS011;63191;39.566;2.654;2023-03-14T00:44:47;7.80;;;2.20;;
74660;SDS011;63191;39.566;2.654;2023-03-14T00:47:13;7.50;;;1.70;;
74660;SDS011;63191;39.566;2.654;2023-03-14T00:49:38;6.50;;;1.20;;
74660;SDS011;63191;39.566;2.654;2023-03-14T00:52:04;6.90;;;1.20;;
74660;SDS011;63191;39.566;2.654;2023-03-14T00:54:30;7.20;;;1.30;;
74660;SDS011;63191;39.566;2.654;2023-03-14T00:56:56;5.20;;;1.00;;
74660;SDS011;63191;39.566;2.654;2023-03-14T00:59:21;6.90;;;0.90;;
74660;SDS011;63191;39.566;2.654;2023-03-14T01:01:47;7.40;;;0.90;;
74660;SDS011;63191;39.566;2.654;2023-03-14T01:04:13;6.70;;;1.00;;
74660;SDS011;63191;39.566;2.654;2023-03-14T01:06:39;6.40;;;0.90;;
74660;SDS011;63191;39.566;2.654;2023-03-14T01:09:05;5.30;;;1.00;;
74660;SDS011;63191;39.566;2.654;2023-03-14T01:11:33;9.90;;;1.10;;
74660;SDS011;63191;39.566;2.654;2023-03-14T01:14:00;8.40;;;1.20;;
74660;SDS011;63191;39.566;2.654;2023-03-14T01:16:29;7.40;;;1.10;;
74660;SDS011;63191;39.566;2.654;2023-03-14T01:18:56;9.60;;;1.10;;
74660;SDS011;63191;39.566;2.654;2023-03-14T01:21:27;10.40;;;1.20;;
74660;SDS011;63191;39.566;2.654;2023-03-14T01:23:57;9.80;;;1.20;;
74660;SDS011;63191;39.566;2.654;2023-03-14T01:26:26;7.20;;;1.10;;
74660;SDS011;63191;39.566;2.654;2023-03-14T01:28:55;6.80;;;1.00;;
74660;SDS011;63191;39.566;2.654;2023-03-14T01:31:22;8.20;;;1.10;;
74660;SDS011;63191;39.566;2.654;2023-03-14T01:33:48;7.60;;;1.30;;
74660;SDS011;63191;39.566;2.654;2023-03-14T01:36:14;10.90;;;1.30;;
74660;SDS011;63191;39.566;2.654;2023-03-14T01:38:40;6.50;;;1.20;;
74660;SDS011;63191;39.566;2.654;2023-03-14T01:41:08;10.80;;;1.10;;
74660;SDS011;63191;39.566;2.654;2023-03-14T01:43:43;7.90;;;1.20;;
74660;SDS011;63191;39.566;2.654;2023-03-14T01:46:34;5.80;;;1.00;;
74660;SDS011;63191;39.566;2.654;2023-03-14T01:49:04;7.20;;;1.30;;
74660;SDS011;63191;39.566;2.654;2023-03-14T01:52:03;5.80;;;0.90;;
74660;SDS011;63191;39.566;2.654;2023-03-14T01:54:39;6.50;;;0.90;;
74660;SDS011;63191;39.566;2.654;2023-03-14T01:57:17;7.50;;;1.00;;
74660;SDS011;63191;39.566;2.654;2023-03-14T01:59:53;8.00;;;1.40;;
74660;SDS011;63191;39.566;2.654;2023-03-14T02:02:22;4.40;;;0.80;;
74660;SDS011;63191;39.566;2.654;2023-03-14T02:04:51;6.00;;;1.00;;
74660;SDS011;63191;39.566;2.654;2023-03-14T02:07:30;4.60;;;0.80;;
74660;SDS011;63191;39.566;2.654;2023-03-14T02:10:04;6.60;;;1.00;;
74660;SDS011;63191;39.566;2.654;2023-03-14T02:12:31;8.60;;;0.90;;
74660;SDS011;63191;39.566;2.654;2023-03-14T02:14:58;7.60;;;0.90;;
74660;SDS011;63191;39.566;2.654;2023-03-14T02:17:24;10.20;;;1.00;;
74660;SDS011;63191;39.566;2.654;2023-03-14T02:22:51;8.60;;;0.70;;
74660;SDS011;63191;39.566;2.654;2023-03-14T02:25:45;7.60;;;0.70;;
74660;SDS011;63191;39.566;2.654;2023-03-14T02:28:16;8.00;;;0.80;;
74660;SDS011;63191;39.566;2.654;2023-03-14T02:30:42;5.70;;;0.70;;
74660;SDS011;63191;39.566;2.654;2023-03-14T02:33:11;5.70;;;0.60;;
74660;SDS011;63191;39.566;2.654;2023-03-14T02:38:34;4.80;;;0.50;;
74660;SDS011;63191;39.566;2.654;2023-03-14T02:41:16;7.30;;;0.60;;
74660;SDS011;63191;39.566;2.654;2023-03-14T02:43:42;7.70;;;0.70;;
74660;SDS011;63191;39.566;2.654;2023-03-14T02:46:11;7.30;;;0.70;;
74660;SDS011;63191;39.566;2.654;2023-03-14T02:48:57;5.90;;;0.60;;
74660;SDS011;63191;39.566;2.654;2023-03-14T02:51:28;7.00;;;0.60;;
74660;SDS011;63191;39.566;2.654;2023-03-14T02:53:55;6.00;;;0.60;;
74660;SDS011;63191;39.566;2.654;2023-03-14T02:56:21;5.10;;;0.60;;
74660;SDS011;63191;39.566;2.654;2023-03-14T02:58:47;6.30;;;0.70;;
74660;SDS011;63191;39.566;2.654;2023-03-14T03:01:13;9.70;;;0.70;;
74660;SDS011;63191;39.566;2.654;2023-03-14T03:03:38;4.00;;;0.40;;
74660;SDS011;63191;39.566;2.654;2023-03-14T03:06:04;5.90;;;0.60;;
74660;SDS011;63191;39.566;2.654;2023-03-14T03:08:31;6.60;;;0.70;;
74660;SDS011;63191;39.566;2.654;2023-03-14T03:10:58;4.80;;;0.50;;
74660;SDS011;63191;39.566;2.654;2023-03-14T03:13:23;6.70;;;0.50;;
74660;SDS011;63191;39.566;2.654;2023-03-14T03:15:49;8.10;;;0.90;;
74660;SDS011;63191;39.566;2.654;2023-03-14T03:18:16;5.80;;;0.50;;
74660;SDS011;63191;39.566;2.654;2023-03-14T03:20:41;6.00;;;0.60;;
74660;SDS011;63191;39.566;2.654;2023-03-14T03:23:07;5.90;;;0.70;;
74660;SDS011;63191;39.566;2.654;2023-03-14T03:25:33;5.50;;;0.70;;
74660;SDS011;63191;39.566;2.654;2023-03-14T03:27:59;5.50;;;0.50;;
74660;SDS011;63191;39.566;2.654;2023-03-14T03:30:25;9.90;;;0.90;;
74660;SDS011;63191;39.566;2.654;2023-03-14T03:32:50;5.20;;;0.50;;
74660;SDS011;63191;39.566;2.654;2023-03-14T03:35:16;4.80;;;0.60;;
74660;SDS011;63191;39.566;2.654;2023-03-14T03:37:42;6.00;;;0.60;;
74660;SDS011;63191;39.566;2.654;2023-03-14T03:40:09;5.50;;;0.60;;
74660;SDS011;63191;39.566;2.654;2023-03-14T03:42:35;4.90;;;0.40;;
74660;SDS011;63191;39.566;2.654;2023-03-14T03:45:03;8.10;;;0.50;;
74660;SDS011;63191;39.566;2.654;2023-03-14T03:47:30;5.90;;;0.40;;
74660;SDS011;63191;39.566;2.654;2023-03-14T03:49:56;3.40;;;0.40;;
74660;SDS011;63191;39.566;2.654;2023-03-14T03:52:22;5.50;;;0.50;;
74660;SDS011;63191;39.566;2.654;2023-03-14T03:54:48;4.90;;;0.50;;
74660;SDS011;63191;39.566;2.654;2023-03-14T03:57:14;7.10;;;0.50;;
74660;SDS011;63191;39.566;2.654;2023-03-14T03:59:39;4.90;;;0.60;;
74660;SDS011;63191;39.566;2.654;2023-03-14T04:02:06;6.30;;;0.60;;
74660;SDS011;63191;39.566;2.654;2023-03-14T04:04:33;8.50;;;0.70;;
74660;SDS011;63191;39.566;2.654;2023-03-14T04:06:58;8.50;;;0.80;;
74660;SDS011;63191;39.566;2.654;2023-03-14T04:09:24;6.40;;;0.60;;
74660;SDS011;63191;39.566;2.654;2023-03-14T04:11:50;5.30;;;0.30;;
74660;SDS011;63191;39.566;2.654;2023-03-14T04:14:16;5.10;;;0.30;;
74660;SDS011;63191;39.566;2.654;2023-03-14T04:16:41;4.70;;;0.60;;
74660;SDS011;63191;39.566;2.654;2023-03-14T04:19:07;7.40;;;0.50;;
74660;SDS011;63191;39.566;2.654;2023-03-14T04:21:33;6.30;;;0.50;;
74660;SDS011;63191;39.566;2.654;2023-03-14T04:23:59;6.40;;;0.40;;
74660;SDS011;63191;39.566;2.654;2023-03-14T04:26:24;4.70;;;0.50;;
74660;SDS011;63191;39.566;2.654;2023-03-14T04:28:50;4.40;;;0.30;;
74660;SDS011;63191;39.566;2.654;2023-03-14T04:31:20;4.60;;;0.60;;
74660;SDS011;63191;39.566;2.654;2023-03-14T04:33:47;4.20;;;0.30;;
74660;SDS011;63191;39.566;2.654;2023-03-14T04:36:13;4.90;;;0.60;;
74660;SDS011;63191;39.566;2.654;2023-03-14T04:38:39;5.60;;;0.50;;
74660;SDS011;63191;39.566;2.654;2023-03-14T04:41:06;4.90;;;0.40;;
74660;SDS011;63191;39.566;2.654;2023-03-14T04:43:32;4.30;;;0.30;;
74660;SDS011;63191;39.566;2.654;2023-03-14T04:45:59;6.10;;;0.40;;
74660;SDS011;63191;39.566;2.654;2023-03-14T04:48:26;5.60;;;0.40;;
74660;SDS011;63191;39.566;2.654;2023-03-14T04:50:52;4.20;;;0.50;;
74660;SDS011;63191;39.566;2.654;2023-03-14T04:53:18;4.10;;;0.30;;
74660;SDS011;63191;39.566;2.654;2023-03-14T04:55:48;5.50;;;0.60;;
74660;SDS011;63191;39.566;2.654;2023-03-14T04:58:15;3.30;;;0.30;;
74660;SDS011;63191;39.566;2.654;2023-03-14T05:00:41;5.00;;;0.40;;
74660;SDS011;63191;39.566;2.654;2023-03-14T05:03:07;4.90;;;0.60;;
74660;SDS011;63191;39.566;2.654;2023-03-14T05:05:32;6.40;;;0.40;;
74660;SDS011;63191;39.566;2.654;2023-03-14T05:07:58;6.90;;;0.40;;
74660;SDS011;63191;39.566;2.654;2023-03-14T05:10:24;8.20;;;0.80;;
74660;SDS011;63191;39.566;2.654;2023-03-14T05:12:51;8.60;;;0.50;;
74660;SDS011;63191;39.566;2.654;2023-03-14T05:15:16;4.10;;;0.40;;
74660;SDS011;63191;39.566;2.654;2023-03-14T05:17:42;6.10;;;0.60;;
74660;SDS011;63191;39.566;2.654;2023-03-14T05:20:09;4.70;;;0.40;;
74660;SDS011;63191;39.566;2.654;2023-03-14T05:22:38;7.40;;;0.60;;
74660;SDS011;63191;39.566;2.654;2023-03-14T05:25:04;7.00;;;0.60;;
74660;SDS011;63191;39.566;2.654;2023-03-14T05:27:32;7.40;;;0.60;;
74660;SDS011;63191;39.566;2.654;2023-03-14T05:29:58;7.10;;;0.50;;
74660;SDS011;63191;39.566;2.654;2023-03-14T05:32:24;9.40;;;0.70;;
74660;SDS011;63191;39.566;2.654;2023-03-14T05:34:49;6.10;;;0.60;;
74660;SDS011;63191;39.566;2.654;2023-03-14T05:37:15;7.00;;;0.40;;
74660;SDS011;63191;39.566;2.654;2023-03-14T05:39:41;5.00;;;0.50;;
74660;SDS011;63191;39.566;2.654;2023-03-14T05:42:07;4.90;;;0.50;;
74660;SDS011;63191;39.566;2.654;2023-03-14T05:44:32;4.30;;;0.40;;
74660;SDS011;63191;39.566;2.654;2023-03-14T05:46:58;5.40;;;0.30;;
74660;SDS011;63191;39.566;2.654;2023-03-14T05:49:24;6.40;;;0.50;;
74660;SDS011;63191;39.566;2.654;2023-03-14T05:51:51;7.50;;;0.50;;
74660;SDS011;63191;39.566;2.654;2023-03-14T05:54:16;5.00;;;0.40;;
74660;SDS011;63191;39.566;2.654;2023-03-14T05:56:43;5.60;;;0.60;;
74660;SDS011;63191;39.566;2.654;2023-03-14T05:59:08;5.10;;;0.30;;
74660;SDS011;63191;39.566;2.654;2023-03-14T06:01:35;4.30;;;0.30;;
74660;SDS011;63191;39.566;2.654;2023-03-14T06:04:00;3.30;;;0.30;;
74660;SDS011;63191;39.566;2.654;2023-03-14T06:06:26;7.20;;;0.50;;
74660;SDS011;63191;39.566;2.654;2023-03-14T06:08:52;6.80;;;0.60;;
74660;SDS011;63191;39.566;2.654;2023-03-14T06:11:17;9.70;;;0.80;;
74660;SDS011;63191;39.566;2.654;2023-03-14T06:13:43;5.00;;;0.70;;
74660;SDS011;63191;39.566;2.654;2023-03-14T06:16:09;6.30;;;0.60;;
74660;SDS011;63191;39.566;2.654;2023-03-14T06:18:35;4.80;;;0.50;;
74660;SDS011;63191;39.566;2.654;2023-03-14T06:21:01;5.90;;;0.50;;
74660;SDS011;63191;39.566;2.654;2023-03-14T06:23:26;7.00;;;0.70;;
74660;SDS011;63191;39.566;2.654;2023-03-14T06:25:52;6.10;;;0.60;;
74660;SDS011;63191;39.566;2.654;2023-03-14T06:28:18;4.30;;;0.40;;
74660;SDS011;63191;39.566;2.654;2023-03-14T06:30:44;5.00;;;0.50;;
74660;SDS011;63191;39.566;2.654;2023-03-14T06:33:09;5.60;;;0.60;;
74660;SDS011;63191;39.566;2.654;2023-03-14T06:35:35;4.90;;;0.60;;
74660;SDS011;63191;39.566;2.654;2023-03-14T06:38:03;7.30;;;0.90;;
74660;SDS011;63191;39.566;2.654;2023-03-14T06:40:30;6.90;;;0.70;;
74660;SDS011;63191;39.566;2.654;2023-03-14T06:42:56;7.40;;;1.00;;
74660;SDS011;63191;39.566;2.654;2023-03-14T06:45:22;6.50;;;0.70;;
74660;SDS011;63191;39.566;2.654;2023-03-14T06:47:48;9.10;;;1.20;;
74660;SDS011;63191;39.566;2.654;2023-03-14T06:50:14;5.30;;;0.80;;
74660;SDS011;63191;39.566;2.654;2023-03-14T06:52:40;7.50;;;0.90;;
74660;SDS011;63191;39.566;2.654;2023-03-14T06:55:14;7.80;;;1.00;;
74660;SDS011;63191;39.566;2.654;2023-03-14T06:57:41;6.20;;;1.00;;
74660;SDS011;63191;39.566;2.654;2023-03-14T07:00:07;8.00;;;1.10;;
74660;SDS011;63191;39.566;2.654;2023-03-14T07:02:34;8.00;;;1.20;;
74660;SDS011;63191;39.566;2.654;2023-03-14T07:04:59;10.20;;;1.40;;
74660;SDS011;63191;39.566;2.654;2023-03-14T07:07:26;8.50;;;1.60;;
74660;SDS011;63191;39.566;2.654;2023-03-14T07:09:52;7.50;;;1.40;;
74660;SDS011;63191;39.566;2.654;2023-03-14T07:12:19;6.70;;;1.60;;
74660;SDS011;63191;39.566;2.654;2023-03-14T07:14:45;8.30;;;1.40;;
74660;SDS011;63191;39.566;2.654;2023-03-14T07:17:11;8.10;;;1.70;;
74660;SDS011;63191;39.566;2.654;2023-03-14T07:19:36;8.40;;;1.60;;
74660;SDS011;63191;39.566;2.654;2023-03-14T07:22:04;10.40;;;1.70;;
74660;SDS011;63191;39.566;2.654;2023-03-14T07:24:31;9.60;;;1.60;;
74660;SDS011;63191;39.566;2.654;2023-03-14T07:26:56;8.20;;;1.90;;
74660;SDS011;63191;39.566;2.654;2023-03-14T07:29:22;9.90;;;1.90;;
74660;SDS011;63191;39.566;2.654;2023-03-14T07:31:48;9.70;;;1.90;;
74660;SDS011;63191;39.566;2.654;2023-03-14T07:34:14;10.20;;;2.20;;
74660;SDS011;63191;39.566;2.654;2023-03-14T07:36:39;9.10;;;2.40;;
74660;SDS011;63191;39.566;2.654;2023-03-14T07:39:05;8.70;;;2.50;;
74660;SDS011;63191;39.566;2.654;2023-03-14T07:41:31;7.00;;;2.60;;
74660;SDS011;63191;39.566;2.654;2023-03-14T07:43:57;7.70;;;2.90;;
74660;SDS011;63191;39.566;2.654;2023-03-14T07:46:23;6.10;;;2.60;;
74660;SDS011;63191;39.566;2.654;2023-03-14T07:48:49;10.40;;;3.40;;
74660;SDS011;63191;39.566;2.654;2023-03-14T07:51:15;10.50;;;3.40;;
74660;SDS011;63191;39.566;2.654;2023-03-14T07:53:41;9.50;;;3.30;;
74660;SDS011;63191;39.566;2.654;2023-03-14T07:56:08;8.30;;;3.70;;
74660;SDS011;63191;39.566;2.654;2023-03-14T07:58:34;9.80;;;3.70;;
74660;SDS011;63191;39.566;2.654;2023-03-14T08:01:00;10.30;;;4.20;;
74660;SDS011;63191;39.566;2.654;2023-03-14T08:03:26;10.20;;;4.30;;
74660;SDS011;63191;39.566;2.654;2023-03-14T08:05:52;7.90;;;3.60;;
74660;SDS011;63191;39.566;2.654;2023-03-14T08:08:19;6.80;;;3.30;;
74660;SDS011;63191;39.566;2.654;2023-03-14T08:10:45;8.10;;;2.70;;
74660;SDS011;63191;39.566;2.654;2023-03-14T08:13:12;7.20;;;2.30;;
74660;SDS011;63191;39.566;2.654;2023-03-14T08:15:37;7.30;;;2.40;;
74660;SDS011;63191;39.566;2.654;2023-03-14T08:18:04;7.60;;;2.00;;
74660;SDS011;63191;39.566;2.654;2023-03-14T08:20:31;6.70;;;1.60;;
74660;SDS011;63191;39.566;2.654;2023-03-14T08:22:58;7.10;;;1.60;;
74660;SDS011;63191;39.566;2.654;2023-03-14T08:25:25;7.70;;;2.00;;
74660;SDS011;63191;39.566;2.654;2023-03-14T08:27:52;7.10;;;2.00;;
74660;SDS011;63191;39.566;2.654;2023-03-14T08:30:19;6.70;;;1.50;;
74660;SDS011;63191;39.566;2.654;2023-03-14T08:32:46;6.70;;;1.60;;
74660;SDS011;63191;39.566;2.654;2023-03-14T08:35:12;8.00;;;2.50;;
74660;SDS011;63191;39.566;2.654;2023-03-14T08:37:38;9.80;;;3.00;;
74660;SDS011;63191;39.566;2.654;2023-03-14T08:40:06;5.60;;;2.00;;
74660;SDS011;63191;39.566;2.654;2023-03-14T08:42:38;4.30;;;1.10;;
74660;SDS011;63191;39.566;2.654;2023-03-14T08:45:06;7.70;;;1.00;;
74660;SDS011;63191;39.566;2.654;2023-03-14T08:47:33;3.80;;;0.80;;
74660;SDS011;63191;39.566;2.654;2023-03-14T08:49:58;3.00;;;0.90;;
74660;SDS011;63191;39.566;2.654;2023-03-14T08:52:24;5.60;;;0.90;;
74660;SDS011;63191;39.566;2.654;2023-03-14T08:54:50;3.20;;;0.60;;
74660;SDS011;63191;39.566;2.654;2023-03-14T08:57:16;5.20;;;0.70;;
74660;SDS011;63191;39.566;2.654;2023-03-14T08:59:42;4.00;;;0.50;;
74660;SDS011;63191;39.566;2.654;2023-03-14T09:02:10;3.10;;;0.70;;
74660;SDS011;63191;39.566;2.654;2023-03-14T09:04:36;3.20;;;0.50;;
74660;SDS011;63191;39.566;2.654;2023-03-14T09:07:02;5.00;;;0.70;;
74660;SDS011;63191;39.566;2.654;2023-03-14T09:09:28;4.00;;;0.60;;
74660;SDS011;63191;39.566;2.654;2023-03-14T09:11:57;3.20;;;0.40;;
74660;SDS011;63191;39.566;2.654;2023-03-14T09:14:23;4.00;;;0.50;;
74660;SDS011;63191;39.566;2.654;2023-03-14T09:16:49;4.20;;;0.70;;
74660;SDS011;63191;39.566;2.654;2023-03-14T09:19:16;3.30;;;0.60;;
74660;SDS011;63191;39.566;2.654;2023-03-14T09:21:42;3.50;;;0.60;;
74660;SDS011;63191;39.566;2.654;2023-03-14T09:24:08;5.80;;;0.60;;
74660;SDS011;63191;39.566;2.654;2023-03-14T09:26:33;4.00;;;0.50;;
74660;SDS011;63191;39.566;2.654;2023-03-14T09:28:59;2.90;;;0.40;;
74660;SDS011;63191;39.566;2.654;2023-03-14T09:31:25;4.80;;;0.70;;
74660;SDS011;63191;39.566;2.654;2023-03-14T09:33:51;4.30;;;0.70;;
74660;SDS011;63191;39.566;2.654;2023-03-14T09:36:16;4.60;;;0.60;;
74660;SDS011;63191;39.566;2.654;2023-03-14T09:38:42;3.40;;;0.70;;
74660;SDS011;63191;39.566;2.654;2023-03-14T09:41:18;4.70;;;0.60;;
74660;SDS011;63191;39.566;2.654;2023-03-14T09:43:47;8.30;;;0.80;;
74660;SDS011;63191;39.566;2.654;2023-03-14T09:46:16;9.30;;;0.90;;
74660;SDS011;63191;39.566;2.654;2023-03-14T09:48:43;6.70;;;0.80;;
74660;SDS011;63191;39.566;2.654;2023-03-14T09:51:20;4.40;;;0.70;;
74660;SDS011;63191;39.566;2.654;2023-03-14T09:53:49;4.90;;;0.60;;
74660;SDS011;63191;39.566;2.654;2023-03-14T09:56:26;4.60;;;0.60;;
74660;SDS011;63191;39.566;2.654;2023-03-14T09:58:58;4.90;;;0.80;;
74660;SDS011;63191;39.566;2.654;2023-03-14T10:01:28;5.70;;;0.80;;
74660;SDS011;63191;39.566;2.654;2023-03-14T10:03:57;8.60;;;0.70;;
74660;SDS011;63191;39.566;2.654;2023-03-14T10:06:43;6.40;;;0.90;;
74660;SDS011;63191;39.566;2.654;2023-03-14T10:09:17;5.70;;;0.60;;
74660;SDS011;63191;39.566;2.654;2023-03-14T10:11:55;4.40;;;0.60;;
74660;SDS011;63191;39.566;2.654;2023-03-14T10:14:33;6.30;;;0.80;;
74660;SDS011;63191;39.566;2.654;2023-03-14T10:17:12;7.00;;;0.80;;
74660;SDS011;63191;39.566;2.654;2023-03-14T10:19:56;4.60;;;0.70;;
74660;SDS011;63191;39.566;2.654;2023-03-14T10:22:32;5.20;;;0.70;;
74660;SDS011;63191;39.566;2.654;2023-03-14T10:25:05;8.50;;;1.10;;
74660;SDS011;63191;39.566;2.654;2023-03-14T10:27:35;7.30;;;0.80;;
74660;SDS011;63191;39.566;2.654;2023-03-14T10:30:05;7.90;;;0.80;;
74660;SDS011;63191;39.566;2.654;2023-03-14T10:32:33;8.00;;;1.00;;
74660;SDS011;63191;39.566;2.654;2023-03-14T10:40:37;4.40;;;0.70;;
74660;SDS011;63191;39.566;2.654;2023-03-14T10:43:07;8.20;;;1.00;;
74660;SDS011;63191;39.566;2.654;2023-03-14T10:45:43;8.60;;;1.10;;
74660;SDS011;63191;39.566;2.654;2023-03-14T10:48:21;5.80;;;0.80;;
74660;SDS011;63191;39.566;2.654;2023-03-14T10:50:56;7.60;;;0.90;;
74660;SDS011;63191;39.566;2.654;2023-03-14T10:53:24;3.60;;;0.70;;
74660;SDS011;63191;39.566;2.654;2023-03-14T10:55:50;5.70;;;0.60;;
74660;SDS011;63191;39.566;2.654;2023-03-14T10:58:29;5.00;;;0.70;;
74660;SDS011;63191;39.566;2.654;2023-03-14T11:01:02;6.50;;;0.70;;
74660;SDS011;63191;39.566;2.654;2023-03-14T11:04:03;4.20;;;0.70;;
74660;SDS011;63191;39.566;2.654;2023-03-14T11:10:08;5.30;;;0.90;;
74660;SDS011;63191;39.566;2.654;2023-03-14T11:27:45;6.70;;;4.00;;
74660;SDS011;63191;39.566;2.654;2023-03-14T11:35:58;8.90;;;7.90;;
74660;SDS011;63191;39.566;2.654;2023-03-14T11:38:32;10.80;;;9.90;;
74660;SDS011;63191;39.566;2.654;2023-03-14T11:40:59;11.50;;;10.40;;
74660;SDS011;63191;39.566;2.654;2023-03-14T11:44:02;12.90;;;11.80;;
74660;SDS011;63191;39.566;2.654;2023-03-14T11:49:19;15.70;;;14.50;;
74660;SDS011;63191;39.566;2.654;2023-03-14T11:51:50;17.70;;;16.40;;
74660;SDS011;63191;39.566;2.654;2023-03-14T11:54:29;17.90;;;16.60;;
74660;SDS011;63191;39.566;2.654;2023-03-14T11:57:10;19.30;;;18.00;;
74660;SDS011;63191;39.566;2.654;2023-03-14T12:03:10;16.80;;;15.60;;
74660;SDS011;63191;39.566;2.654;2023-03-14T12:11:15;8.80;;;7.90;;
74660;SDS011;63191;39.566;2.654;2023-03-14T12:13:51;8.60;;;7.70;;
74660;SDS011;63191;39.566;2.654;2023-03-14T12:18:50;9.50;;;8.50;;
74660;SDS011;63191;39.566;2.654;2023-03-14T12:21:17;10.40;;;9.30;;
74660;SDS011;63191;39.566;2.654;2023-03-14T12:23:52;11.40;;;10.30;;
74660;SDS011;63191;39.566;2.654;2023-03-14T12:26:24;11.40;;;10.30;;
74660;SDS011;63191;39.566;2.654;2023-03-14T12:34:27;12.10;;;11.10;;
74660;SDS011;63191;39.566;2.654;2023-03-14T12:37:36;12.30;;;11.30;;
74660;SDS011;63191;39.566;2.654;2023-03-14T12:40:54;11.20;;;10.30;;
74660;SDS011;63191;39.566;2.654;2023-03-14T12:43:02;11.10;;;10.10;;
74660;SDS011;63191;39.566;2.654;2023-03-14T12:45:32;11.10;;;10.10;;
74660;SDS011;63191;39.566;2.654;2023-03-14T12:48:17;11.00;;;9.90;;
74660;SDS011;63191;39.566;2.654;2023-03-14T12:51:02;10.40;;;9.50;;
74660;SDS011;63191;39.566;2.654;2023-03-14T13:04:36;9.20;;;8.40;;
74660;SDS011;63191;39.566;2.654;2023-03-14T13:07:38;9.60;;;8.70;;
74660;SDS011;63191;39.566;2.654;2023-03-14T13:10:29;9.30;;;8.30;;
74660;SDS011;63191;39.566;2.654;2023-03-14T13:13:01;10.00;;;9.20;;
74660;SDS011;63191;39.566;2.654;2023-03-14T13:15:43;9.30;;;8.50;;
74660;SDS011;63191;39.566;2.654;2023-03-14T13:18:16;9.50;;;8.70;;
74660;SDS011;63191;39.566;2.654;2023-03-14T13:23:53;9.90;;;9.00;;
74660;SDS011;63191;39.566;2.654;2023-03-14T13:26:34;8.50;;;7.70;;
74660;SDS011;63191;39.566;2.654;2023-03-14T13:29:21;8.80;;;7.90;;
74660;SDS011;63191;39.566;2.654;2023-03-14T13:31:55;8.10;;;7.30;;
74660;SDS011;63191;39.566;2.654;2023-03-14T13:34:26;7.20;;;6.50;;
74660;SDS011;63191;39.566;2.654;2023-03-14T13:37:01;7.50;;;6.30;;
74660;SDS011;63191;39.566;2.654;2023-03-14T13:39:28;6.60;;;4.90;;
74660;SDS011;63191;39.566;2.654;2023-03-14T13:42:01;7.50;;;5.20;;
74660;SDS011;63191;39.566;2.654;2023-03-14T13:44:27;6.80;;;4.50;;
74660;SDS011;63191;39.566;2.654;2023-03-14T13:47:00;6.20;;;3.80;;
74660;SDS011;63191;39.566;2.654;2023-03-14T13:49:29;6.90;;;3.60;;
74660;SDS011;63191;39.566;2.654;2023-03-14T13:51:57;5.40;;;2.60;;
74660;SDS011;63191;39.566;2.654;2023-03-14T13:54:26;5.30;;;2.60;;
74660;SDS011;63191;39.566;2.654;2023-03-14T13:57:00;5.30;;;2.10;;
74660;SDS011;63191;39.566;2.654;2023-03-14T13:59:29;5.00;;;1.60;;
74660;SDS011;63191;39.566;2.654;2023-03-14T14:02:20;5.40;;;1.80;;
74660;SDS011;63191;39.566;2.654;2023-03-14T14:04:46;4.30;;;1.60;;
74660;SDS011;63191;39.566;2.654;2023-03-14T14:07:16;4.20;;;1.40;;
74660;SDS011;63191;39.566;2.654;2023-03-14T14:09:48;4.10;;;1.00;;
74660;SDS011;63191;39.566;2.654;2023-03-14T14:15:00;3.80;;;1.10;;
74660;SDS011;63191;39.566;2.654;2023-03-14T14:17:37;4.10;;;0.90;;
74660;SDS011;63191;39.566;2.654;2023-03-14T14:20:11;4.50;;;0.90;;
74660;SDS011;63191;39.566;2.654;2023-03-14T14:22:44;4.20;;;0.80;;
74660;SDS011;63191;39.566;2.654;2023-03-14T14:25:13;3.20;;;0.80;;
74660;SDS011;63191;39.566;2.654;2023-03-14T14:27:47;6.50;;;0.80;;
74660;SDS011;63191;39.566;2.654;2023-03-14T14:32:43;3.20;;;0.70;;
74660;SDS011;63191;39.566;2.654;2023-03-14T14:35:31;4.20;;;0.70;;
74660;SDS011;63191;39.566;2.654;2023-03-14T14:37:58;3.20;;;0.70;;
74660;SDS011;63191;39.566;2.654;2023-03-14T14:40:29;7.60;;;0.90;;
74660;SDS011;63191;39.566;2.654;2023-03-14T14:43:03;14.60;;;1.40;;
74660;SDS011;63191;39.566;2.654;2023-03-14T14:45:30;8.80;;;0.90;;
74660;SDS011;63191;39.566;2.654;2023-03-14T14:53:31;6.30;;;0.60;;
74660;SDS011;63191;39.566;2.654;2023-03-14T14:58:48;3.40;;;0.50;;
74660;SDS011;63191;39.566;2.654;2023-03-14T15:01:23;2.40;;;0.40;;
74660;SDS011;63191;39.566;2.654;2023-03-14T15:03:55;2.80;;;0.40;;
74660;SDS011;63191;39.566;2.654;2023-03-14T15:06:23;2.80;;;0.30;;
74660;SDS011;63191;39.566;2.654;2023-03-14T15:08:53;6.30;;;0.50;;
74660;SDS011;63191;39.566;2.654;2023-03-14T15:11:22;4.40;;;0.70;;
74660;SDS011;63191;39.566;2.654;2023-03-14T15:13:51;2.60;;;0.30;;
74660;SDS011;63191;39.566;2.654;2023-03-14T15:16:19;2.60;;;0.60;;
74660;SDS011;63191;39.566;2.654;2023-03-14T15:18:52;4.60;;;0.70;;
74660;SDS011;63191;39.566;2.654;2023-03-14T15:21:21;2.60;;;0.40;;
74660;SDS011;63191;39.566;2.654;2023-03-14T15:23:48;4.20;;;0.50;;
74660;SDS011;63191;39.566;2.654;2023-03-14T15:26:20;3.40;;;0.40;;
74660;SDS011;63191;39.566;2.654;2023-03-14T15:28:47;3.50;;;0.40;;
74660;SDS011;63191;39.566;2.654;2023-03-14T15:31:15;3.80;;;0.40;;
74660;SDS011;63191;39.566;2.654;2023-03-14T15:33:43;3.90;;;0.50;;
74660;SDS011;63191;39.566;2.654;2023-03-14T15:36:27;4.00;;;0.60;;
74660;SDS011;63191;39.566;2.654;2023-03-14T15:38:56;2.60;;;0.40;;
74660;SDS011;63191;39.566;2.654;2023-03-14T15:41:24;4.40;;;0.60;;
74660;SDS011;63191;39.566;2.654;2023-03-14T15:43:51;2.90;;;0.30;;
74660;SDS011;63191;39.566;2.654;2023-03-14T15:46:17;2.70;;;0.40;;
74660;SDS011;63191;39.566;2.654;2023-03-14T15:48:46;3.50;;;0.60;;
74660;SDS011;63191;39.566;2.654;2023-03-14T15:51:12;3.60;;;0.50;;
74660;SDS011;63191;39.566;2.654;2023-03-14T15:53:39;4.30;;;0.40;;
74660;SDS011;63191;39.566;2.654;2023-03-14T15:56:06;3.50;;;0.50;;
74660;SDS011;63191;39.566;2.654;2023-03-14T15:58:33;3.50;;;0.60;;
74660;SDS011;63191;39.566;2.654;2023-03-14T16:01:06;2.10;;;0.30;;
74660;SDS011;63191;39.566;2.654;2023-03-14T16:03:36;4.00;;;0.50;;
74660;SDS011;63191;39.566;2.654;2023-03-14T16:06:02;2.10;;;0.40;;
74660;SDS011;63191;39.566;2.654;2023-03-14T16:08:29;2.70;;;0.20;;
74660;SDS011;63191;39.566;2.654;2023-03-14T16:10:57;3.80;;;0.40;;
74660;SDS011;63191;39.566;2.654;2023-03-14T16:13:24;3.40;;;0.40;;
74660;SDS011;63191;39.566;2.654;2023-03-14T16:15:57;2.40;;;0.40;;
74660;SDS011;63191;39.566;2.654;2023-03-14T16:18:27;3.30;;;0.30;;
74660;SDS011;63191;39.566;2.654;2023-03-14T16:20:57;2.20;;;0.20;;